KPHL/PHL METAR and TAF weather

Enter ICAO airport designator
Station Type Date Time Source
KPHL METAR 2020/03/31 09:06 UTC NOAA

KPHL 310906Z 00000KT 6SM BR SCT018 BKN027 OVC035 08/06 A2996 RMK AO2 T00780061


Station Type Date Time Source
KPHL Decoded METAR 2020/03/31 09:06 UTC NOAA

PHILADELPHIA INTERNATIONAL AIRPT, PA, United States (KPHL) 39-52N 075-14W 18M
Mar 31, 2020 - 05:06 AM EDT / 2020.03.31 0906 UTC
Wind: Calm:0
Visibility: 6 mile(s):0
Sky conditions: overcast
Weather: mist
Temperature: 46.0 F (7.8 C)
Dew Point: 43.0 F (6.1 C)
Relative Humidity: 88%
Pressure (altimeter): 29.96 in. Hg (1014 hPa)
ob: KPHL 310906Z 00000KT 6SM BR SCT018 BKN027 OVC035 08/06 A2996 RMK AO2 T00780061
cycle: 9

Station Type Date Time Source
KPHL TAF 2020/03/31 09:49 UTC NOAA

TAF
AMD KPHL 310844Z 3109/0112 VRB03KT 4SM BR OVC015
FM311000 02005KT P6SM OVC008
FM311400 08008KT P6SM OVC015
FM312000 08008KT P6SM OVC025
FM010800 05006KT P6SM OVC025

Example: see airport list